PWSweather.com
Personal Weather Stations
Station Observations
J24K28P63
Vysocina, PocatkyCZ 39464

VysocinaPocatkyCZ 39464

Lat: 49.2594238, Lon: 15.2331769

Elevation: 2011

Station Type: Vantage Pro2+

http://meteo-jirkalina.com

High Low Average
Temperature 79.6°F26.4°C 52.5°F11.4°C 69.6°F20.9°C
Dew Point 59.9°F15.5°C 39.0°F3.9°C 48.6°F9.2°C
Winds 14.0 mph 22.5 kmh Calm Calm 6.0 mph E9.7 kmh E
Wind Gusts 20.0 mph32.2 kmh -- 10.0 mph16.1 kmh
Humidity 98% 28% 51%
Pressure 29.90 in1012.5 mb 29.72 in1006.4 mb -
Precipitation 0.00 in0.0 mm - -
Hour Temp Dew Point Humidity Winds Wind Gusts Pressure Precip Precip Rate Daily Precip Total
12:00 AM 57.7°F14.3°C 53.2°F11.8°C 85% 2.7 mph E4.3 kmh E 5.0 mph8.0 kmh 29.86 in1011.2 mb - 0.00 in0.0 mm 0.00 in0.0 mm
12:30 AM 57.2°F14.0°C 52.7°F11.5°C 85% 3.2 mph E5.1 kmh E 5.0 mph8.0 kmh 29.86 in1011.2 mb - 0.00 in0.0 mm 0.00 in0.0 mm
01:00 AM 56.6°F13.7°C 52.1°F11.2°C 85% 2.9 mph ENE4.7 kmh ENE 5.0 mph8.0 kmh 29.85 in1010.8 mb - 0.00 in0.0 mm 0.00 in0.0 mm
01:30 AM 56.6°F13.7°C 52.5°F11.4°C 86% 1.8 mph E2.9 kmh E 6.0 mph9.7 kmh 29.85 in1010.8 mb - 0.00 in0.0 mm 0.00 in0.0 mm
02:00 AM 56.5°F13.6°C 52.4°F11.3°C 86% 2.7 mph E4.3 kmh E 5.0 mph8.0 kmh 29.84 in1010.5 mb - 0.00 in0.0 mm 0.00 in0.0 mm
02:30 AM 57.0°F13.9°C 51.9°F11.1°C 83% 4.8 mph E7.7 kmh E 8.0 mph12.9 kmh 29.83 in1010.2 mb - 0.00 in0.0 mm 0.00 in0.0 mm
03:00 AM 56.5°F13.6°C 50.7°F10.4°C 81% 2.2 mph ENE3.5 kmh ENE 2.0 mph3.2 kmh 29.83 in1010.2 mb - 0.00 in0.0 mm 0.00 in0.0 mm
03:30 AM 55.7°F13.2°C 49.9°F9.9°C 81% Calm Calm 3.0 mph4.8 kmh 29.82 in1009.8 mb - 0.00 in0.0 mm 0.00 in0.0 mm
04:00 AM 55.0°F12.8°C 47.9°F8.8°C 77% 4.7 mph ESE7.6 kmh ESE 6.0 mph9.7 kmh 29.82 in1009.8 mb - 0.00 in0.0 mm 0.00 in0.0 mm
04:30 AM 55.4°F13.0°C 45.8°F7.7°C 70% 2.7 mph E4.3 kmh E 5.0 mph8.0 kmh 29.82 in1009.8 mb - 0.00 in0.0 mm 0.00 in0.0 mm
04:40 AM 52.5°F11.4°C 52.0°F11.1°C 98% Calm Calm 1.0 mph1.6 kmh 29.89 in1012.2 mb - 0.00 in0.0 mm 0.00 in0.0 mm
04:50 AM 53.2°F11.8°C 52.6°F11.4°C 98% Calm Calm -- 29.89 in1012.2 mb - 0.00 in0.0 mm 0.00 in0.0 mm
05:00 AM 53.3°F11.8°C 52.8°F11.6°C 98% Calm Calm -- 29.89 in1012.2 mb - 0.00 in0.0 mm 0.00 in0.0 mm
05:10 AM 54.3°F12.4°C 53.7°F12.1°C 98% Calm Calm 1.0 mph1.6 kmh 29.89 in1012.2 mb - 0.00 in0.0 mm 0.00 in0.0 mm
05:20 AM 55.2°F12.9°C 54.7°F12.6°C 98% Calm Calm -- 29.89 in1012.2 mb - 0.00 in0.0 mm 0.00 in0.0 mm
05:30 AM 56.0°F13.3°C 55.4°F13.0°C 98% Calm Calm 1.0 mph1.6 kmh 29.89 in1012.2 mb - 0.00 in0.0 mm 0.00 in0.0 mm
05:40 AM 56.3°F13.5°C 55.7°F13.2°C 98% 1.0 mph E1.6 kmh E 2.0 mph3.2 kmh 29.89 in1012.2 mb - 0.00 in0.0 mm 0.00 in0.0 mm
05:50 AM 56.8°F13.8°C 56.2°F13.4°C 98% 1.0 mph E1.6 kmh E 2.0 mph3.2 kmh 29.89 in1012.2 mb - 0.00 in0.0 mm 0.00 in0.0 mm
06:00 AM 58.2°F14.6°C 57.6°F14.2°C 98% 1.0 mph E1.6 kmh E 1.0 mph1.6 kmh 29.90 in1012.5 mb - 0.00 in0.0 mm 0.00 in0.0 mm
06:10 AM 58.8°F14.9°C 58.0°F14.4°C 97% Calm Calm 2.0 mph3.2 kmh 29.90 in1012.5 mb - 0.00 in0.0 mm 0.00 in0.0 mm
06:20 AM 59.8°F15.4°C 58.9°F14.9°C 97% 2.0 mph E3.2 kmh E 7.0 mph11.3 kmh 29.90 in1012.5 mb - 0.00 in0.0 mm 0.00 in0.0 mm
06:30 AM 60.3°F15.7°C 58.9°F14.9°C 95% 2.0 mph E3.2 kmh E 3.0 mph4.8 kmh 29.90 in1012.5 mb - 0.00 in0.0 mm 0.00 in0.0 mm
06:40 AM 61.6°F16.4°C 59.2°F15.1°C 92% 1.0 mph E1.6 kmh E 2.0 mph3.2 kmh 29.90 in1012.5 mb - 0.00 in0.0 mm 0.00 in0.0 mm
06:50 AM 63.5°F17.5°C 59.9°F15.5°C 88% 1.0 mph E1.6 kmh E 2.0 mph3.2 kmh 29.90 in1012.5 mb - 0.00 in0.0 mm 0.00 in0.0 mm
07:00 AM 64.6°F18.1°C 59.4°F15.2°C 83% 2.0 mph E3.2 kmh E 3.0 mph4.8 kmh 29.90 in1012.5 mb - 0.00 in0.0 mm 0.00 in0.0 mm
07:10 AM 64.3°F17.9°C 59.4°F15.2°C 84% 2.0 mph E3.2 kmh E 3.0 mph4.8 kmh 29.89 in1012.2 mb - 0.00 in0.0 mm 0.00 in0.0 mm
07:20 AM 64.8°F18.2°C 58.9°F14.9°C 81% 5.0 mph ENE8.0 kmh ENE 9.0 mph14.5 kmh 29.89 in1012.2 mb - 0.00 in0.0 mm 0.00 in0.0 mm
07:30 AM 66.0°F18.9°C 59.0°F15.0°C 78% 5.0 mph NE8.0 kmh NE 6.0 mph9.7 kmh 29.89 in1012.2 mb - 0.00 in0.0 mm 0.00 in0.0 mm
07:40 AM 67.0°F19.4°C 58.9°F14.9°C 75% 3.0 mph E4.8 kmh E 8.0 mph12.9 kmh 29.89 in1012.2 mb - 0.00 in0.0 mm 0.00 in0.0 mm
07:50 AM 68.2°F20.1°C 58.0°F14.4°C 70% 2.0 mph ENE3.2 kmh ENE 5.0 mph8.0 kmh 29.88 in1011.9 mb - 0.00 in0.0 mm 0.00 in0.0 mm
08:00 AM 68.6°F20.3°C 56.8°F13.8°C 66% 3.0 mph ESE4.8 kmh ESE 7.0 mph11.3 kmh 29.88 in1011.9 mb - 0.00 in0.0 mm 0.00 in0.0 mm
08:10 AM 70.1°F21.2°C 56.5°F13.6°C 62% 6.0 mph E9.7 kmh E 12.0 mph19.3 kmh 29.88 in1011.9 mb - 0.00 in0.0 mm 0.00 in0.0 mm
08:20 AM 71.0°F21.7°C 56.4°F13.6°C 60% 5.0 mph E8.0 kmh E 9.0 mph14.5 kmh 29.88 in1011.9 mb - 0.00 in0.0 mm 0.00 in0.0 mm
08:30 AM 70.9°F21.6°C 53.9°F12.2°C 55% 6.0 mph NE9.7 kmh NE 10.0 mph16.1 kmh 29.88 in1011.9 mb - 0.00 in0.0 mm 0.00 in0.0 mm
08:40 AM 71.5°F21.9°C 54.5°F12.5°C 55% 5.0 mph NE8.0 kmh NE 9.0 mph14.5 kmh 29.88 in1011.9 mb - 0.00 in0.0 mm 0.00 in0.0 mm
08:50 AM 72.2°F22.3°C 53.6°F12.0°C 52% 6.0 mph E9.7 kmh E 8.0 mph12.9 kmh 29.87 in1011.5 mb - 0.00 in0.0 mm 0.00 in0.0 mm
09:00 AM 72.7°F22.6°C 55.1°F12.8°C 54% 6.0 mph E9.7 kmh E 10.0 mph16.1 kmh 29.87 in1011.5 mb - 0.00 in0.0 mm 0.00 in0.0 mm
09:10 AM 73.3°F22.9°C 55.6°F13.1°C 54% 7.0 mph ENE11.3 kmh ENE 9.0 mph14.5 kmh 29.87 in1011.5 mb - 0.00 in0.0 mm 0.00 in0.0 mm
09:20 AM 74.0°F23.3°C 56.3°F13.5°C 54% 7.0 mph ENE11.3 kmh ENE 10.0 mph16.1 kmh 29.87 in1011.5 mb - 0.00 in0.0 mm 0.00 in0.0 mm
09:30 AM 73.9°F23.3°C 55.2°F12.9°C 52% 8.0 mph NE12.9 kmh NE 16.0 mph25.7 kmh 29.86 in1011.2 mb - 0.00 in0.0 mm 0.00 in0.0 mm
09:40 AM 73.2°F22.9°C 54.5°F12.5°C 52% 5.0 mph E8.0 kmh E 8.0 mph12.9 kmh 29.86 in1011.2 mb - 0.00 in0.0 mm 0.00 in0.0 mm
09:50 AM 73.3°F22.9°C 53.0°F11.7°C 49% 7.0 mph E11.3 kmh E 9.0 mph14.5 kmh 29.86 in1011.2 mb - 0.00 in0.0 mm 0.00 in0.0 mm
10:00 AM 74.4°F23.6°C 53.4°F11.9°C 48% 5.0 mph E8.0 kmh E 12.0 mph19.3 kmh 29.86 in1011.2 mb - 0.00 in0.0 mm 0.00 in0.0 mm
10:10 AM 74.8°F23.8°C 52.0°F11.1°C 45% 7.0 mph ENE11.3 kmh ENE 9.0 mph14.5 kmh 29.85 in1010.8 mb - 0.00 in0.0 mm 0.00 in0.0 mm
10:20 AM 75.0°F23.9°C 52.2°F11.2°C 45% 8.0 mph NE12.9 kmh NE 12.0 mph19.3 kmh 29.85 in1010.8 mb - 0.00 in0.0 mm 0.00 in0.0 mm
10:30 AM 75.3°F24.1°C 51.3°F10.7°C 43% 7.0 mph NE11.3 kmh NE 15.0 mph24.1 kmh 29.85 in1010.8 mb - 0.00 in0.0 mm 0.00 in0.0 mm
10:40 AM 75.7°F24.3°C 52.2°F11.2°C 44% 8.0 mph E12.9 kmh E 12.0 mph19.3 kmh 29.85 in1010.8 mb - 0.00 in0.0 mm 0.00 in0.0 mm
10:50 AM 76.0°F24.4°C 51.9°F11.1°C 43% 7.0 mph E11.3 kmh E 12.0 mph19.3 kmh 29.84 in1010.5 mb - 0.00 in0.0 mm 0.00 in0.0 mm
11:00 AM 76.2°F24.6°C 51.4°F10.8°C 42% 6.0 mph NE9.7 kmh NE 13.0 mph20.9 kmh 29.84 in1010.5 mb - 0.00 in0.0 mm 0.00 in0.0 mm
11:10 AM 76.3°F24.6°C 50.2°F10.1°C 40% 9.0 mph NE14.5 kmh NE 16.0 mph25.7 kmh 29.84 in1010.5 mb - 0.00 in0.0 mm 0.00 in0.0 mm
11:20 AM 76.5°F24.7°C 49.0°F9.4°C 38% 10.0 mph NE16.1 kmh NE 15.0 mph24.1 kmh 29.84 in1010.5 mb - 0.00 in0.0 mm 0.00 in0.0 mm
11:30 AM 76.5°F24.7°C 49.0°F9.4°C 38% 6.0 mph NE9.7 kmh NE 15.0 mph24.1 kmh 29.84 in1010.5 mb - 0.00 in0.0 mm 0.00 in0.0 mm
11:40 AM 77.0°F25.0°C 48.0°F8.9°C 36% 7.0 mph ESE11.3 kmh ESE 12.0 mph19.3 kmh 29.83 in1010.2 mb - 0.00 in0.0 mm 0.00 in0.0 mm
11:50 AM 77.2°F25.1°C 48.9°F9.4°C 37% 7.0 mph NE11.3 kmh NE 14.0 mph22.5 kmh 29.83 in1010.2 mb - 0.00 in0.0 mm 0.00 in0.0 mm
12:00 PM 77.6°F25.3°C 47.8°F8.8°C 35% 9.0 mph ENE14.5 kmh ENE 12.0 mph19.3 kmh 29.83 in1010.2 mb - 0.00 in0.0 mm 0.00 in0.0 mm
12:10 PM 77.1°F25.1°C 46.6°F8.1°C 34% 9.0 mph E14.5 kmh E 12.0 mph19.3 kmh 29.83 in1010.2 mb - 0.00 in0.0 mm 0.00 in0.0 mm
12:20 PM 77.3°F25.2°C 47.5°F8.6°C 35% 7.0 mph ENE11.3 kmh ENE 9.0 mph14.5 kmh 29.83 in1010.2 mb - 0.00 in0.0 mm 0.00 in0.0 mm
12:30 PM 77.1°F25.1°C 47.3°F8.5°C 35% 8.0 mph ENE12.9 kmh ENE 20.0 mph32.2 kmh 29.83 in1010.2 mb - 0.00 in0.0 mm 0.00 in0.0 mm
12:40 PM 77.3°F25.2°C 47.5°F8.6°C 35% 8.0 mph ENE12.9 kmh ENE 13.0 mph20.9 kmh 29.82 in1009.8 mb - 0.00 in0.0 mm 0.00 in0.0 mm
12:50 PM 77.5°F25.3°C 42.8°F6.0°C 29% 14.0 mph ENE22.5 kmh ENE 17.0 mph27.4 kmh 29.82 in1009.8 mb - 0.00 in0.0 mm 0.00 in0.0 mm
01:00 PM 77.8°F25.4°C 44.7°F7.1°C 31% 12.0 mph NE19.3 kmh NE 16.0 mph25.7 kmh 29.82 in1009.8 mb - 0.00 in0.0 mm 0.00 in0.0 mm
01:10 PM 78.2°F25.7°C 45.1°F7.3°C 31% 10.0 mph NE16.1 kmh NE 15.0 mph24.1 kmh 29.82 in1009.8 mb - 0.00 in0.0 mm 0.00 in0.0 mm
01:20 PM 78.0°F25.6°C 44.1°F6.7°C 30% 3.0 mph ENE4.8 kmh ENE 8.0 mph12.9 kmh 29.82 in1009.8 mb - 0.00 in0.0 mm 0.00 in0.0 mm
01:30 PM 78.7°F25.9°C 45.5°F7.5°C 31% 6.0 mph ENE9.7 kmh ENE 13.0 mph20.9 kmh 29.82 in1009.8 mb - 0.00 in0.0 mm 0.00 in0.0 mm
01:40 PM 79.1°F26.2°C 44.1°F6.7°C 29% 7.0 mph E11.3 kmh E 12.0 mph19.3 kmh 29.81 in1009.5 mb - 0.00 in0.0 mm 0.00 in0.0 mm
01:50 PM 78.8°F26.0°C 43.8°F6.6°C 29% 9.0 mph E14.5 kmh E 15.0 mph24.1 kmh 29.81 in1009.5 mb - 0.00 in0.0 mm 0.00 in0.0 mm
02:00 PM 78.7°F25.9°C 45.5°F7.5°C 31% 12.0 mph NE19.3 kmh NE 18.0 mph29.0 kmh 29.80 in1009.1 mb - 0.00 in0.0 mm 0.00 in0.0 mm
02:10 PM 79.2°F26.2°C 45.1°F7.3°C 30% 10.0 mph ENE16.1 kmh ENE 16.0 mph25.7 kmh 29.80 in1009.1 mb - 0.00 in0.0 mm 0.00 in0.0 mm
02:20 PM 78.7°F25.9°C 45.5°F7.5°C 31% 10.0 mph E16.1 kmh E 18.0 mph29.0 kmh 29.80 in1009.1 mb - 0.00 in0.0 mm 0.00 in0.0 mm
02:30 PM 79.0°F26.1°C 44.9°F7.2°C 30% 7.0 mph E11.3 kmh E 13.0 mph20.9 kmh 29.80 in1009.1 mb - 0.00 in0.0 mm 0.00 in0.0 mm
02:40 PM 78.8°F26.0°C 45.6°F7.6°C 31% 8.0 mph E12.9 kmh E 16.0 mph25.7 kmh 29.79 in1008.8 mb - 0.00 in0.0 mm 0.00 in0.0 mm
02:50 PM 79.6°F26.4°C 45.4°F7.4°C 30% 6.0 mph E9.7 kmh E 12.0 mph19.3 kmh 29.79 in1008.8 mb - 0.00 in0.0 mm 0.00 in0.0 mm
03:00 PM 79.2°F26.2°C 45.9°F7.7°C 31% 9.0 mph NE14.5 kmh NE 17.0 mph27.4 kmh 29.78 in1008.5 mb - 0.00 in0.0 mm 0.00 in0.0 mm
03:10 PM 79.5°F26.4°C 45.4°F7.4°C 30% 10.0 mph ENE16.1 kmh ENE 14.0 mph22.5 kmh 29.78 in1008.5 mb - 0.00 in0.0 mm 0.00 in0.0 mm
03:20 PM 79.2°F26.2°C 44.2°F6.8°C 29% 7.0 mph E11.3 kmh E 12.0 mph19.3 kmh 29.78 in1008.5 mb - 0.00 in0.0 mm 0.00 in0.0 mm
03:30 PM 79.3°F26.3°C 44.3°F6.8°C 29% 12.0 mph ENE19.3 kmh ENE 17.0 mph27.4 kmh 29.77 in1008.1 mb - 0.00 in0.0 mm 0.00 in0.0 mm
03:40 PM 78.9°F26.1°C 43.0°F6.1°C 28% 10.0 mph ENE16.1 kmh ENE 12.0 mph19.3 kmh 29.78 in1008.5 mb - 0.00 in0.0 mm 0.00 in0.0 mm
03:50 PM 79.1°F26.2°C 45.9°F7.7°C 31% 7.0 mph E11.3 kmh E 8.0 mph12.9 kmh 29.77 in1008.1 mb - 0.00 in0.0 mm 0.00 in0.0 mm
04:00 PM 79.2°F26.2°C 45.9°F7.7°C 31% 8.0 mph NE12.9 kmh NE 12.0 mph19.3 kmh 29.77 in1008.1 mb - 0.00 in0.0 mm 0.00 in0.0 mm
04:10 PM 78.7°F25.9°C 45.5°F7.5°C 31% 10.0 mph E16.1 kmh E 12.0 mph19.3 kmh 29.77 in1008.1 mb - 0.00 in0.0 mm 0.00 in0.0 mm
04:20 PM 78.7°F25.9°C 45.5°F7.5°C 31% 5.0 mph ENE8.0 kmh ENE 9.0 mph14.5 kmh 29.77 in1008.1 mb - 0.00 in0.0 mm 0.00 in0.0 mm
04:30 PM 78.5°F25.8°C 48.5°F9.2°C 35% 10.0 mph ENE16.1 kmh ENE 18.0 mph29.0 kmh 29.77 in1008.1 mb - 0.00 in0.0 mm 0.00 in0.0 mm
04:40 PM 77.8°F25.4°C 48.7°F9.3°C 36% 12.0 mph ENE19.3 kmh ENE 13.0 mph20.9 kmh 29.77 in1008.1 mb - 0.00 in0.0 mm 0.00 in0.0 mm
04:50 PM 77.8°F25.4°C 49.4°F9.7°C 37% 12.0 mph E19.3 kmh E 18.0 mph29.0 kmh 29.77 in1008.1 mb - 0.00 in0.0 mm 0.00 in0.0 mm
05:00 PM 77.5°F25.3°C 49.9°F9.9°C 38% 8.0 mph NE12.9 kmh NE 15.0 mph24.1 kmh 29.76 in1007.8 mb - 0.00 in0.0 mm 0.00 in0.0 mm
05:10 PM 77.4°F25.2°C 49.8°F9.9°C 38% 8.0 mph ENE12.9 kmh ENE 18.0 mph29.0 kmh 29.76 in1007.8 mb - 0.00 in0.0 mm 0.00 in0.0 mm
05:20 PM 76.9°F24.9°C 49.4°F9.7°C 38% 8.0 mph E12.9 kmh E 10.0 mph16.1 kmh 29.76 in1007.8 mb - 0.00 in0.0 mm 0.00 in0.0 mm
05:30 PM 76.6°F24.8°C 48.4°F9.1°C 37% 9.0 mph NE14.5 kmh NE 15.0 mph24.1 kmh 29.76 in1007.8 mb - 0.00 in0.0 mm 0.00 in0.0 mm
05:40 PM 76.2°F24.6°C 48.7°F9.3°C 38% 8.0 mph NE12.9 kmh NE 14.0 mph22.5 kmh 29.76 in1007.8 mb - 0.00 in0.0 mm 0.00 in0.0 mm
05:50 PM 75.9°F24.4°C 49.2°F9.6°C 39% 7.0 mph NE11.3 kmh NE 12.0 mph19.3 kmh 29.76 in1007.8 mb - 0.00 in0.0 mm 0.00 in0.0 mm
06:00 PM 75.4°F24.1°C 49.4°F9.7°C 40% 13.0 mph NE20.9 kmh NE 16.0 mph25.7 kmh 29.76 in1007.8 mb - 0.00 in0.0 mm 0.00 in0.0 mm
06:10 PM 74.7°F23.7°C 49.5°F9.7°C 41% 10.0 mph NE16.1 kmh NE 16.0 mph25.7 kmh 29.76 in1007.8 mb - 0.00 in0.0 mm 0.00 in0.0 mm
06:20 PM 74.3°F23.5°C 49.7°F9.8°C 42% 8.0 mph ENE12.9 kmh ENE 12.0 mph19.3 kmh 29.76 in1007.8 mb - 0.00 in0.0 mm 0.00 in0.0 mm
06:30 PM 73.8°F23.2°C 49.3°F9.6°C 42% 6.0 mph NE9.7 kmh NE 12.0 mph19.3 kmh 29.76 in1007.8 mb - 0.00 in0.0 mm 0.00 in0.0 mm
06:40 PM 73.3°F22.9°C 48.8°F9.3°C 42% 8.0 mph E12.9 kmh E 9.0 mph14.5 kmh 29.76 in1007.8 mb - 0.00 in0.0 mm 0.00 in0.0 mm
06:50 PM 72.7°F22.6°C 48.9°F9.4°C 43% 8.0 mph NE12.9 kmh NE 14.0 mph22.5 kmh 29.76 in1007.8 mb - 0.00 in0.0 mm 0.00 in0.0 mm
07:00 PM 72.1°F22.3°C 48.4°F9.1°C 43% 8.0 mph NE12.9 kmh NE 14.0 mph22.5 kmh 29.77 in1008.1 mb - 0.00 in0.0 mm 0.00 in0.0 mm
07:10 PM 71.5°F21.9°C 48.5°F9.2°C 44% 7.0 mph NE11.3 kmh NE 8.0 mph12.9 kmh 29.76 in1007.8 mb - 0.00 in0.0 mm 0.00 in0.0 mm
07:20 PM 71.1°F21.7°C 48.1°F8.9°C 44% 8.0 mph NE12.9 kmh NE 12.0 mph19.3 kmh 29.77 in1008.1 mb - 0.00 in0.0 mm 0.00 in0.0 mm
07:30 PM 64.5°F18.1°C 40.3°F4.6°C 41% 5.4 mph E8.7 kmh E 6.0 mph9.7 kmh 29.72 in1006.4 mb - 0.00 in0.0 mm 0.00 in0.0 mm
08:00 PM 63.3°F17.4°C 41.0°F5.0°C 44% 2.2 mph ENE3.5 kmh ENE 4.0 mph6.4 kmh 29.72 in1006.4 mb - 0.00 in0.0 mm 0.00 in0.0 mm
08:30 PM 62.3°F16.8°C 41.2°F5.1°C 46% 4.0 mph E6.4 kmh E 7.0 mph11.3 kmh 29.72 in1006.4 mb - 0.00 in0.0 mm 0.00 in0.0 mm
09:00 PM 61.6°F16.4°C 42.2°F5.7°C 49% 3.9 mph ENE6.3 kmh ENE 7.0 mph11.3 kmh 29.73 in1006.8 mb - 0.00 in0.0 mm 0.00 in0.0 mm
09:30 PM 61.3°F16.3°C 40.9°F4.9°C 47% 3.4 mph ENE5.5 kmh ENE 7.0 mph11.3 kmh 29.73 in1006.8 mb - 0.00 in0.0 mm 0.00 in0.0 mm
10:00 PM 60.9°F16.1°C 40.0°F4.4°C 46% 5.8 mph ENE9.3 kmh ENE 10.0 mph16.1 kmh 29.74 in1007.1 mb - 0.00 in0.0 mm 0.00 in0.0 mm
10:30 PM 60.1°F15.6°C 39.2°F4.0°C 46% 3.6 mph NE5.8 kmh NE 4.0 mph6.4 kmh 29.74 in1007.1 mb - 0.00 in0.0 mm 0.00 in0.0 mm
11:00 PM 59.3°F15.2°C 39.0°F3.9°C 47% 3.9 mph NE6.3 kmh NE 5.0 mph8.0 kmh 29.74 in1007.1 mb - 0.00 in0.0 mm 0.00 in0.0 mm
11:30 PM 58.4°F14.7°C 39.3°F4.1°C 49% 3.5 mph E5.6 kmh E 5.0 mph8.0 kmh 29.74 in1007.1 mb - 0.00 in0.0 mm 0.00 in0.0 mm